Time;durP1;ratioP1;P1;durP2;ratioP2;P2;SDS_P1;SDS_P2;PMS_P1;PMS_P2;Temp;Humidity;BMP_temperature;BMP_pressure;BME280_temperature;BME280_humidity;BME280_pressure;Samples;Min_cycle;Max_cycle;Signal;HPM_P1;HPM_P2
2023/09/12 00:01:44;;;;;;;9.93;6.72;;;19.00;99.90;;;18.98;100.00;96908.25;5013242;28;20057;-38
2023/09/12 00:04:11;;;;;;;11.15;7.63;;;19.00;99.90;;;18.94;100.00;96901.44;5014988;28;20033;-37
2023/09/12 00:06:37;;;;;;;13.32;7.18;;;18.90;99.90;;;18.91;100.00;96897.19;5014818;28;20128;-38
2023/09/12 00:09:05;;;;;;;11.43;7.22;;;18.90;99.90;;;18.80;100.00;96889.13;5014527;28;20069;-37
2023/09/12 00:11:31;;;;;;;13.45;7.28;;;18.90;99.90;;;18.82;100.00;96896.06;5014954;28;20482;-38
2023/09/12 00:13:56;;;;;;;11.40;7.38;;;18.90;99.90;;;18.80;100.00;96889.13;5012878;28;20124;-38
2023/09/12 00:16:22;;;;;;;12.75;7.57;;;18.80;99.90;;;18.76;100.00;96888.53;5012146;28;20036;-37
2023/09/12 00:18:48;;;;;;;8.63;6.93;;;18.80;99.90;;;18.73;100.00;96888.75;5012686;28;20040;-38
2023/09/12 00:21:13;;;;;;;9.30;6.88;;;18.70;99.90;;;18.70;100.00;96889.00;5012580;28;20033;-37
2023/09/12 00:23:39;;;;;;;9.63;7.20;;;18.70;99.90;;;18.65;100.00;96886.69;5015417;28;20064;-38
2023/09/12 00:26:05;;;;;;;11.00;7.35;;;18.60;99.90;;;18.62;100.00;96891.41;5014590;28;20037;-37
2023/09/12 00:28:30;;;;;;;12.40;7.15;;;18.60;99.90;;;18.58;100.00;96888.13;5016246;28;20030;-37
2023/09/12 00:30:56;;;;;;;9.70;7.68;;;18.50;99.90;;;18.55;100.00;96879.50;5009006;28;20088;-37
2023/09/12 00:33:22;;;;;;;10.70;7.60;;;18.60;99.90;;;18.53;100.00;96886.78;5011902;28;20481;-38
2023/09/12 00:35:48;;;;;;;11.13;7.72;;;18.50;99.90;;;18.46;100.00;96884.56;5009209;28;20118;-39
2023/09/12 00:38:13;;;;;;;10.73;7.30;;;18.50;99.90;;;18.36;100.00;96872.94;5007568;28;20112;-38
2023/09/12 00:40:39;;;;;;;13.85;7.20;;;18.40;99.90;;;18.46;100.00;96883.75;5010407;28;20025;-38
2023/09/12 00:43:04;;;;;;;10.85;7.80;;;18.50;99.90;;;18.50;100.00;96883.41;5012328;28;20106;-38
2023/09/12 00:45:30;;;;;;;9.88;7.22;;;18.50;99.90;;;18.48;100.00;96888.00;5010503;28;20086;-38
2023/09/12 00:47:58;;;;;;;12.95;7.20;;;18.50;99.90;;;18.47;100.00;96890.78;5011223;28;20056;-38
2023/09/12 00:50:25;;;;;;;11.23;7.63;;;18.40;99.90;;;18.31;100.00;96869.75;5033648;28;20030;-38
2023/09/12 00:52:52;;;;;;;11.63;7.72;;;18.40;99.90;;;18.42;100.00;96885.78;5008296;28;20397;-38
2023/09/12 00:55:18;;;;;;;13.65;7.65;;;18.40;99.90;;;18.38;100.00;96884.34;5013196;28;20496;-38
2023/09/12 00:57:44;;;;;;;12.15;7.38;;;18.40;99.90;;;18.35;100.00;96886.38;5009694;28;20037;-38
2023/09/12 01:00:13;;;;;;;9.52;7.43;;;18.30;99.90;;;18.32;100.00;96884.78;5006404;28;20124;-38
2023/09/12 01:02:41;;;;;;;11.57;7.30;;;18.30;99.90;;;18.30;100.00;96882.25;5012215;28;20041;-38
2023/09/12 01:05:09;;;;;;;9.63;7.35;;;18.30;99.90;;;18.26;100.00;96875.44;5011113;28;20405;-37
2023/09/12 01:07:38;;;;;;;13.32;7.68;;;18.30;99.90;;;18.24;100.00;96876.53;5012110;28;20029;-37
2023/09/12 01:10:07;;;;;;;9.13;7.57;;;18.20;99.90;;;18.18;100.00;96872.53;5009242;28;20784;-39
2023/09/12 01:12:34;;;;;;;12.20;7.60;;;18.20;99.90;;;18.16;100.00;96878.91;5014809;28;20037;-38
2023/09/12 01:14:59;;;;;;;11.05;7.43;;;18.20;99.90;;;18.12;100.00;96879.19;5008295;28;20033;-38
2023/09/12 01:17:26;;;;;;;11.50;7.75;;;18.10;99.90;;;18.01;100.00;96860.44;5017454;28;20032;-37
2023/09/12 01:19:52;;;;;;;11.20;7.57;;;18.10;99.90;;;18.07;100.00;96868.00;5008070;28;20049;-37
2023/09/12 01:22:51;;;;;;;11.73;7.95;;;18.10;99.90;;;18.06;100.00;96868.09;5009735;28;20033;-38
2023/09/12 01:25:50;;;;;;;11.02;7.63;;;18.10;99.90;;;18.05;100.00;96867.28;5012372;28;20369;-37
2023/09/12 01:28:17;;;;;;;11.93;7.10;;;18.10;99.90;;;17.91;100.00;96854.13;5012105;28;20048;-37
2023/09/12 01:30:48;;;;;;;9.70;7.30;;;18.00;99.90;;;18.03;100.00;96884.34;5007338;28;20446;-38
2023/09/12 01:33:14;;;;;;;12.93;8.13;;;18.10;99.90;;;18.03;100.00;96873.66;5007808;28;20715;-37
2023/09/12 01:35:40;;;;;;;11.88;7.50;;;18.00;99.90;;;18.02;100.00;96882.66;5008512;28;20312;-39
2023/09/12 01:38:05;;;;;;;11.15;7.38;;;18.00;99.90;;;17.96;100.00;96867.94;5006296;28;20040;-37
2023/09/12 01:40:41;;;;;;;9.70;7.47;;;18.00;99.90;;;17.98;100.00;96874.03;5008611;28;20466;-38
2023/09/12 01:43:07;;;;;;;11.07;7.18;;;18.00;99.90;;;17.97;100.00;96872.31;5009723;28;20430;-38
2023/09/12 01:45:33;;;;;;;11.82;7.63;;;18.00;99.90;;;17.94;100.00;96877.88;5027782;28;20030;-37
2023/09/12 01:48:00;;;;;;;12.23;7.78;;;18.00;99.90;;;17.81;100.00;96867.25;5006217;28;20043;-38
2023/09/12 01:50:28;;;;;;;12.88;7.72;;;17.90;99.90;;;17.89;100.00;96888.91;5012288;28;20029;-38
2023/09/12 01:52:54;;;;;;;13.43;7.78;;;17.90;99.90;;;17.86;100.00;96882.94;5008852;28;20029;-37
2023/09/12 01:55:21;;;;;;;10.15;7.32;;;17.90;99.90;;;17.81;100.00;96877.91;5011166;28;20087;-37
2023/09/12 01:57:47;;;;;;;14.27;7.82;;;17.90;99.90;;;17.78;100.00;96878.13;5008757;28;20030;-38
2023/09/12 02:00:13;;;;;;;12.23;7.55;;;17.80;99.90;;;17.75;100.00;96879.22;5005207;28;20057;-37
2023/09/12 02:02:39;;;;;;;10.80;7.72;;;17.80;99.90;;;17.74;100.00;96874.00;5009523;28;20026;-38
2023/09/12 02:05:18;;;;;;;11.38;7.90;;;17.80;99.90;;;17.71;100.00;96876.88;5008763;28;20473;-38
2023/09/12 02:07:45;;;;;;;12.05;7.78;;;17.70;99.90;;;17.68;100.00;96871.81;5007549;28;20112;-38
2023/09/12 02:10:11;;;;;;;11.23;7.95;;;17.70;99.90;;;17.64;100.00;96876.50;5010009;28;20533;-38
2023/09/12 02:12:37;;;;;;;10.77;7.50;;;17.70;99.90;;;17.60;100.00;96867.00;5014172;28;20056;-38
2023/09/12 02:15:03;;;;;;;11.40;7.60;;;17.60;99.90;;;17.60;100.00;96869.69;5008363;28;20123;-38
2023/09/12 02:17:29;;;;;;;11.55;7.32;;;17.60;99.90;;;17.59;100.00;96870.66;5009200;28;20045;-38
2023/09/12 02:19:54;;;;;;;9.23;7.40;;;17.60;99.90;;;17.61;100.00;96871.41;5012525;28;20031;-37
2023/09/12 02:22:20;;;;;;;11.90;7.78;;;17.60;99.90;;;17.61;100.00;96867.88;5015109;28;20033;-38
2023/09/12 02:24:46;;;;;;;13.00;7.25;;;17.60;99.90;;;17.61;100.00;96876.72;5013837;28;20087;-38
2023/09/12 02:27:11;;;;;;;13.32;7.22;;;17.60;99.90;;;17.60;100.00;96875.00;5012885;28;20049;-38
2023/09/12 02:29:39;;;;;;;10.75;7.95;;;17.60;99.90;;;17.59;100.00;96868.00;5010936;28;20440;-38
2023/09/12 02:32:05;;;;;;;12.85;7.85;;;17.60;99.90;;;17.47;100.00;96850.25;5010020;28;20375;-39
2023/09/12 02:34:32;;;;;;;13.45;7.90;;;17.60;99.90;;;17.53;100.00;96863.97;5012323;28;20030;-39
2023/09/12 02:36:58;;;;;;;10.98;7.63;;;17.60;99.90;;;17.44;100.00;96848.63;5011223;28;20461;-37
2023/09/12 02:39:23;;;;;;;14.23;7.60;;;17.60;99.90;;;17.54;100.00;96867.47;5013181;28;20025;-38
2023/09/12 02:41:49;;;;;;;15.02;7.43;;;17.60;99.90;;;17.53;100.00;96853.31;5014298;28;20037;-38
2023/09/12 02:44:15;;;;;;;11.73;7.35;;;17.60;99.90;;;17.55;100.00;96859.38;5012341;28;20034;-38
2023/09/12 02:46:41;;;;;;;11.38;7.93;;;17.60;99.90;;;17.58;100.00;96854.78;5013568;28;20493;-38
2023/09/12 02:49:06;;;;;;;9.18;7.22;;;17.60;99.90;;;17.59;100.00;96854.66;5012341;28;20159;-37
2023/09/12 02:51:32;;;;;;;10.55;7.35;;;17.60;99.90;;;17.58;100.00;96855.63;5012147;28;20033;-37
2023/09/12 02:53:58;;;;;;;12.20;7.40;;;17.60;99.90;;;17.54;100.00;96843.50;5007519;28;20552;-38
2023/09/12 02:56:24;;;;;;;13.40;7.57;;;17.60;99.90;;;17.53;100.00;96844.44;5010607;28;20064;-38
2023/09/12 02:58:49;;;;;;;12.88;7.53;;;17.60;99.90;;;17.47;100.00;96856.41;4992948;28;20029;-38
2023/09/12 03:01:20;;;;;;;14.57;7.85;;;17.50;99.90;;;17.47;100.00;96855.56;5008706;28;20750;-37
2023/09/12 03:03:49;;;;;;;11.48;7.65;;;17.50;99.90;;;17.44;100.00;96850.44;5011452;28;20083;-38
2023/09/12 03:06:15;;;;;;;12.95;7.93;;;17.50;99.90;;;17.42;100.00;96847.91;5010789;28;20041;-37
2023/09/12 03:08:43;;;;;;;10.70;7.68;;;17.50;99.90;;;17.41;100.00;96853.34;5011049;28;20067;-39
2023/09/12 03:11:09;;;;;;;10.90;7.65;;;17.40;99.90;;;17.39;100.00;96853.47;5007734;28;20034;-37
2023/09/12 03:13:36;;;;;;;10.07;7.43;;;17.40;99.90;;;17.37;100.00;96858.03;5008619;28;20060;-38
2023/09/12 03:16:02;;;;;;;11.18;7.60;;;17.40;99.90;;;17.34;100.00;96848.47;5009402;28;20073;-38
2023/09/12 03:18:28;;;;;;;12.43;8.05;;;17.40;99.90;;;17.30;100.00;96855.00;5011266;28;20125;-38
2023/09/12 03:20:54;;;;;;;14.07;8.18;;;17.30;99.90;;;17.25;100.00;96845.63;5008998;28;20032;-39
2023/09/12 03:23:20;;;;;;;8.75;7.38;;;17.30;99.90;;;17.12;100.00;96835.88;5010558;28;20030;-38
2023/09/12 03:25:46;;;;;;;9.15;7.20;;;17.30;99.90;;;17.21;100.00;96854.78;5012027;28;20172;-38
2023/09/12 03:28:11;;;;;;;10.13;7.32;;;17.20;99.90;;;17.09;100.00;96829.91;5011312;28;20041;-38
2023/09/12 03:30:38;;;;;;;12.23;7.55;;;17.30;99.90;;;17.17;100.00;96847.03;5010293;28;20030;-37
2023/09/12 03:33:05;;;;;;;14.00;8.07;;;17.30;99.90;;;17.17;100.00;96849.72;5008699;28;20092;-38
2023/09/12 03:35:32;;;;;;;12.85;7.25;;;17.20;99.90;;;17.11;100.00;96835.97;5015145;28;20079;-38
2023/09/12 03:37:58;;;;;;;9.50;7.28;;;17.20;99.90;;;17.20;100.00;96839.78;5010896;28;20041;-38
2023/09/12 03:40:24;;;;;;;13.25;7.18;;;17.30;99.90;;;17.23;100.00;96840.41;5014665;28;20033;-38
2023/09/12 03:42:50;;;;;;;11.07;7.30;;;17.30;99.90;;;17.23;100.00;96839.53;5009231;28;20120;-38
2023/09/12 03:45:15;;;;;;;10.52;7.30;;;17.30;99.90;;;17.22;100.00;96841.34;5011943;28;20039;-38
2023/09/12 03:47:42;;;;;;;15.82;7.05;;;17.30;99.90;;;17.22;100.00;96844.03;5011728;28;20028;-37
2023/09/12 03:50:08;;;;;;;9.55;7.00;;;17.30;99.90;;;17.23;100.00;96836.88;5008080;28;22051;-38
2023/09/12 03:52:33;;;;;;;8.57;6.68;;;17.30;99.90;;;17.22;100.00;96840.53;5010161;28;20489;-38
2023/09/12 03:55:00;;;;;;;9.18;7.32;;;17.30;99.90;;;17.21;100.00;96836.13;5001476;28;20029;-38
2023/09/12 03:57:26;;;;;;;10.20;7.43;;;17.30;99.90;;;17.20;100.00;96843.28;5004350;28;20038;-37
2023/09/12 03:59:52;;;;;;;12.43;7.40;;;17.30;99.90;;;17.19;100.00;96852.22;5008472;28;20028;-38
2023/09/12 04:02:18;;;;;;;10.65;7.80;;;17.30;99.90;;;17.20;100.00;96839.78;5011303;28;20044;-37
2023/09/12 04:04:44;;;;;;;11.43;7.10;;;17.30;99.90;;;17.17;100.00;96833.72;5011415;28;20037;-38
2023/09/12 04:07:10;;;;;;;10.95;7.03;;;17.30;99.90;;;17.22;100.00;96846.69;5006874;28;20341;-38
2023/09/12 04:09:35;;;;;;;10.32;7.22;;;17.30;99.90;;;17.21;100.00;96839.69;5010532;28;20432;-38
2023/09/12 04:12:01;;;;;;;12.30;8.13;;;17.30;99.90;;;17.21;100.00;96842.34;5004773;28;21513;-38
2023/09/12 04:14:27;;;;;;;12.70;7.90;;;17.30;99.90;;;17.20;100.00;96843.28;5011129;28;20413;-37
2023/09/12 04:16:52;;;;;;;10.93;7.75;;;17.30;99.90;;;17.19;100.00;96844.25;5004691;28;21294;-38
2023/09/12 04:19:18;;;;;;;9.88;7.70;;;17.30;99.90;;;17.21;100.00;96852.13;5008421;28;20029;-38
2023/09/12 04:21:44;;;;;;;11.30;7.90;;;17.30;99.90;;;17.18;100.00;96846.06;5011156;28;20072;-38
2023/09/12 04:24:10;;;;;;;12.35;7.57;;;17.30;99.90;;;17.18;100.00;96850.56;5014068;28;20097;-38
2023/09/12 04:26:36;;;;;;;15.88;8.68;;;17.30;99.90;;;17.19;100.00;96849.56;5013846;28;20037;-37
2023/09/12 04:29:02;;;;;;;12.43;7.60;;;17.30;99.90;;;17.21;100.00;96842.34;5007096;28;20033;-37
2023/09/12 04:31:27;;;;;;;11.45;7.63;;;17.30;99.90;;;17.24;100.00;96841.25;5012073;28;20215;-37
2023/09/12 04:33:54;;;;;;;11.90;8.07;;;17.40;99.90;;;17.25;100.00;96835.81;5011370;28;20033;-37
2023/09/12 04:36:20;;;;;;;14.18;6.93;;;17.40;99.90;;;17.28;100.00;96834.72;5009837;28;20529;-37
2023/09/12 04:38:46;;;;;;;14.25;7.55;;;17.30;99.90;;;17.21;100.00;96823.69;4998572;28;20490;-38
2023/09/12 04:41:17;;;;;;;10.98;7.13;;;17.40;99.90;;;17.35;100.00;96838.66;5004773;28;20030;-37
2023/09/12 04:43:44;;;;;;;12.65;7.57;;;17.40;99.90;;;17.34;100.00;96823.63;5006541;28;20045;-39
2023/09/12 04:46:11;;;;;;;9.85;7.15;;;17.40;99.90;;;17.40;100.00;96833.84;5006015;28;20378;-37
2023/09/12 04:48:37;;;;;;;10.32;7.20;;;17.50;99.90;;;17.36;100.00;96825.22;5004896;28;20026;-38
2023/09/12 04:51:03;;;;;;;11.07;7.90;;;17.50;99.90;;;17.43;100.00;96840.78;5030491;23;20053;-37
2023/09/12 04:53:35;;;;;;;10.27;7.13;;;17.50;99.90;;;17.39;100.00;96831.28;5034405;28;20036;-37
2023/09/12 04:56:02;;;;;;;12.93;7.30;;;17.50;99.90;;;17.46;100.00;96838.72;5034533;28;20115;-38
2023/09/12 04:58:29;;;;;;;11.77;7.32;;;17.50;99.90;;;17.48;100.00;96844.78;5032687;28;20037;-40
2023/09/12 05:00:55;;;;;;;15.60;8.00;;;17.60;99.90;;;17.50;100.00;96842.03;5033984;28;20462;-37
2023/09/12 05:03:22;;;;;;;10.32;7.80;;;17.50;99.90;;;17.52;100.00;96842.75;5035174;28;20067;-38
2023/09/12 05:05:52;;;;;;;12.15;7.78;;;17.60;99.90;;;17.55;100.00;96845.19;5031035;28;20112;-38
2023/09/12 05:08:18;;;;;;;10.70;7.75;;;17.60;99.90;;;17.59;100.00;96843.16;5034397;28;20354;-37
2023/09/12 05:10:47;;;;;;;10.68;7.57;;;17.70;99.90;;;17.66;100.00;96849.75;5032597;28;20132;-39
2023/09/12 05:13:13;;;;;;;12.80;6.75;;;17.70;99.90;;;17.72;100.00;96847.44;5033741;28;20033;-38
2023/09/12 05:15:40;;;;;;;10.40;7.40;;;17.80;99.90;;;17.73;100.00;96841.16;5035227;28;20048;-37
2023/09/12 05:18:07;;;;;;;9.40;6.63;;;17.80;99.90;;;17.85;100.00;96855.41;5031273;28;20063;-38
2023/09/12 05:20:33;;;;;;;8.85;7.10;;;17.90;99.90;;;17.93;100.00;96844.19;5030153;28;20039;-38
2023/09/12 05:22:59;;;;;;;10.25;7.07;;;18.00;99.90;;;17.99;100.00;96829.53;5032371;28;20472;-38
2023/09/12 05:25:26;;;;;;;10.93;7.50;;;18.10;99.90;;;18.15;100.00;96834.53;5033864;28;20052;-37
2023/09/12 05:27:52;;;;;;;11.68;8.23;;;18.20;99.90;;;18.23;100.00;96840.13;5034357;28;20025;-38
2023/09/12 05:30:18;;;;;;;9.43;7.22;;;18.30;99.90;;;18.27;100.00;96830.94;5029934;28;20909;-37
2023/09/12 05:32:44;;;;;;;9.90;7.45;;;18.40;99.90;;;18.44;100.00;96834.94;5035003;28;20112;-38
2023/09/12 05:35:09;;;;;;;8.27;6.65;;;18.50;99.90;;;18.49;100.00;96830.13;5033708;28;20029;-37
2023/09/12 05:37:35;;;;;;;11.68;8.23;;;18.60;99.90;;;18.64;100.00;96850.25;5033919;28;20112;-37
2023/09/12 05:40:01;;;;;;;12.38;8.38;;;18.70;99.90;;;18.72;100.00;96847.00;5034100;28;20029;-39
2023/09/12 05:42:26;;;;;;;9.27;7.32;;;18.80;99.90;;;18.85;100.00;96850.44;5034920;28;20067;-37
2023/09/12 05:44:56;;;;;;;11.15;7.47;;;18.90;99.90;;;18.95;100.00;96853.22;5031042;28;20033;-37
2023/09/12 05:47:21;;;;;;;11.10;6.93;;;19.00;99.90;;;19.13;100.00;96856.25;5032871;28;20033;-38
2023/09/12 05:49:47;;;;;;;13.88;7.72;;;19.10;99.90;;;19.27;100.00;96863.16;5035820;28;20048;-38
2023/09/12 05:52:13;;;;;;;10.57;6.90;;;19.30;99.90;;;19.45;100.00;96861.66;5038713;28;20049;-40
2023/09/12 05:54:40;;;;;;;10.57;7.07;;;19.50;99.90;;;19.63;100.00;96864.66;5038731;28;20025;-38
2023/09/12 05:57:07;;;;;;;11.48;7.00;;;19.60;99.90;;;19.81;100.00;96872.16;5036533;28;20029;-38
2023/09/12 05:59:35;;;;;;;11.57;7.10;;;19.80;99.90;;;19.98;100.00;96879.63;5035607;28;20037;-39
2023/09/12 06:02:00;;;;;;;8.77;6.63;;;20.00;99.90;;;20.10;100.00;96864.41;5038206;28;20259;-38
2023/09/12 06:04:26;;;;;;;14.82;7.82;;;20.10;99.90;;;20.18;100.00;96869.09;5037303;28;20151;-37
2023/09/12 06:06:52;;;;;;;11.43;7.95;;;20.20;99.90;;;20.28;100.00;96875.38;5036205;28;20041;-39
2023/09/12 06:09:18;;;;;;;11.93;7.60;;;20.20;99.90;;;20.36;100.00;96867.53;5036921;28;20051;-38
2023/09/12 06:11:43;;;;;;;9.70;6.97;;;20.40;99.90;;;20.50;100.00;96878.91;5038626;28;20048;-38
2023/09/12 06:14:09;;;;;;;12.05;7.40;;;20.50;99.90;;;20.56;100.00;96881.03;5034432;28;20032;-39
2023/09/12 06:16:35;;;;;;;14.85;8.13;;;20.50;99.90;;;20.59;100.00;96881.63;5035450;28;20491;-38
2023/09/12 06:19:00;;;;;;;13.95;8.00;;;20.60;99.90;;;20.59;100.00;96886.16;5035568;28;20049;-38
2023/09/12 06:21:26;;;;;;;9.70;7.30;;;20.60;99.90;;;20.62;100.00;96890.41;5036810;28;20032;-37
2023/09/12 06:24:16;;;;;;;10.38;7.38;;;20.60;99.90;;;20.61;100.00;96889.56;5037966;28;20032;-37
2023/09/12 06:26:42;;;;;;;10.30;7.63;;;20.60;99.90;;;20.63;100.00;96887.59;5039625;28;20531;-37
2023/09/12 06:29:09;;;;;;;10.60;7.90;;;20.60;99.90;;;20.62;100.00;96877.88;5034793;28;20036;-40
2023/09/12 06:31:35;;;;;;;9.77;7.10;;;20.60;99.90;;;20.63;100.00;96879.56;5052042;28;20119;-39
2023/09/12 06:34:01;;;;;;;11.98;7.30;;;20.70;99.90;;;20.77;100.00;96887.25;5037710;28;20033;-38
2023/09/12 06:36:29;;;;;;;12.60;6.80;;;20.80;99.90;;;20.85;100.00;96897.31;5037835;28;20037;-38
2023/09/12 06:38:56;;;;;;;8.45;6.55;;;20.80;99.90;;;20.86;100.00;96892.81;5038277;28;20033;-37
2023/09/12 06:41:22;;;;;;;11.82;7.75;;;20.90;99.90;;;20.87;100.00;96898.06;5032102;28;20049;-40
2023/09/12 06:43:47;;;;;;;10.02;6.90;;;20.90;99.90;;;20.89;100.00;96888.03;5036348;28;20462;-38
2023/09/12 06:46:14;;;;;;;9.48;6.78;;;20.90;99.90;;;21.03;100.00;96894.88;5036135;28;20052;-38
2023/09/12 06:48:40;;;;;;;8.30;6.50;;;21.10;99.90;;;21.10;100.00;96882.66;5037129;28;20025;-38
2023/09/12 06:51:08;;;;;;;13.20;8.27;;;21.20;99.90;;;21.15;100.00;96893.78;5037292;28;20102;-37
2023/09/12 06:53:34;;;;;;;12.82;7.53;;;21.30;99.90;;;21.31;100.00;96901.31;5037015;28;20029;-38
2023/09/12 06:56:00;;;;;;;10.43;7.22;;;21.40;99.90;;;21.47;100.00;96911.59;5039850;28;20460;-37
2023/09/12 06:58:26;;;;;;;10.48;6.97;;;21.40;99.90;;;21.52;100.00;96913.88;5031247;28;20048;-40
2023/09/12 07:00:51;;;;;;;13.73;7.30;;;21.50;99.90;;;21.54;100.00;96912.72;5036470;28;20029;-38
2023/09/12 07:03:17;;;;;;;13.50;6.95;;;21.50;99.90;;;21.57;100.00;96913.44;5038173;28;20032;-38
2023/09/12 07:05:44;;;;;;;11.38;7.00;;;21.50;99.90;;;21.58;100.00;96920.50;5034332;28;20041;-39
2023/09/12 07:08:10;;;;;;;9.45;6.82;;;21.50;99.90;;;21.59;100.00;96922.19;5036472;28;20923;-38
2023/09/12 07:10:36;;;;;;;12.52;7.95;;;21.60;99.90;;;21.53;100.00;96911.06;5036223;28;20043;-38
2023/09/12 07:13:02;;;;;;;9.85;7.15;;;21.60;99.90;;;21.63;100.00;96918.28;5030859;28;20040;-40
2023/09/12 07:15:28;;;;;;;10.50;6.32;;;21.60;99.90;;;21.67;100.00;96927.75;5036152;28;20040;-37
2023/09/12 07:17:53;;;;;;;9.50;7.03;;;21.60;99.90;;;21.70;100.00;96919.41;5037972;28;20290;-41
2023/09/12 07:20:20;;;;;;;11.88;6.68;;;21.70;99.90;;;21.85;100.00;96936.81;5037294;28;20408;-38
2023/09/12 07:22:46;;;;;;;11.80;7.32;;;21.80;99.90;;;21.95;100.00;96933.28;5039078;28;20098;-39
2023/09/12 07:25:14;;;;;;;9.95;6.88;;;21.80;99.90;;;22.03;100.00;96934.28;5034695;28;20995;-37
2023/09/12 07:27:40;;;;;;;9.77;7.00;;;21.90;99.90;;;22.12;100.00;96936.13;5035878;28;20133;-38
2023/09/12 07:30:07;;;;;;;10.43;6.85;;;22.00;99.90;;;22.22;100.00;96944.22;5033512;28;20123;-38
2023/09/12 07:32:33;;;;;;;12.35;7.40;;;22.10;99.90;;;22.34;100.00;96944.09;5036544;28;20068;-38
2023/09/12 07:34:59;;;;;;;9.68;6.68;;;22.20;99.90;;;22.49;100.00;96940.84;5038354;28;20132;-38
2023/09/12 07:37:25;;;;;;;8.40;6.35;;;22.40;99.90;;;22.57;100.00;96942.81;5036461;28;20110;-38
2023/09/12 07:39:50;;;;;;;12.15;8.05;;;22.50;99.90;;;22.60;100.00;96939.84;5032659;28;20527;-38
2023/09/12 07:42:16;;;;;;;12.35;8.20;;;22.50;99.90;;;22.61;100.00;96941.56;5028862;28;20037;-38
2023/09/12 07:44:42;;;;;;;11.48;7.25;;;22.60;99.90;;;22.64;100.00;96940.41;5027533;28;20032;-39
2023/09/12 07:47:08;;;;;;;12.32;8.52;;;22.60;99.90;;;22.65;100.00;96934.91;5022526;28;20091;-39
2023/09/12 07:49:33;;;;;;;14.98;8.88;;;22.60;99.90;;;22.65;100.00;96937.59;5028898;28;20032;-38
2023/09/12 07:51:59;;;;;;;12.90;8.50;;;22.70;99.90;;;22.73;100.00;96938.69;5028432;28;20037;-38
2023/09/12 07:54:25;;;;;;;18.98;8.73;;;22.80;99.90;;;22.80;100.00;96927.22;5036275;28;20325;-38
2023/09/12 07:56:50;;;;;;;16.67;8.85;;;22.80;99.90;;;22.88;100.00;96935.41;5033738;28;20122;-38
2023/09/12 07:59:16;;;;;;;17.63;9.20;;;22.90;99.90;;;22.96;100.00;96937.38;5033714;28;20025;-39
2023/09/12 08:01:42;;;;;;;18.70;8.75;;;22.90;99.90;;;23.05;100.00;96939.22;5035231;28;20040;-38
2023/09/12 08:04:08;;;;;;;16.10;8.02;;;23.00;99.90;;;23.11;100.00;96937.78;5030807;28;20032;-38
2023/09/12 08:06:33;;;;;;;12.27;8.40;;;23.10;99.90;;;23.24;100.00;96934.78;5035691;28;20028;-38
2023/09/12 08:09:00;;;;;;;14.40;8.77;;;23.20;99.90;;;23.35;100.00;96934.59;5028035;28;20045;-38
2023/09/12 08:11:27;;;;;;;15.73;9.00;;;23.30;99.90;;;23.48;100.00;96931.56;5034667;28;20032;-38
2023/09/12 08:13:52;;;;;;;13.98;8.43;;;23.40;99.90;;;23.69;100.00;96941.22;5034547;28;20033;-38
2023/09/12 08:16:18;;;;;;;11.52;8.27;;;23.60;99.90;;;23.97;100.00;96942.91;5031044;28;20032;-38
2023/09/12 08:18:44;;;;;;;10.98;7.93;;;23.90;99.90;;;24.13;98.51;96944.09;5037836;28;20041;-38
2023/09/12 08:21:10;;;;;;;11.25;7.40;;;24.00;99.90;;;24.19;99.46;96947.03;5030390;28;20663;-38
2023/09/12 08:23:36;;;;;;;10.88;7.82;;;24.00;99.90;;;24.24;96.40;96945.72;5029480;28;20037;-38
2023/09/12 08:26:02;;;;;;;8.68;6.82;;;24.10;99.90;;;24.29;97.43;96938.03;5035518;28;20021;-38
2023/09/12 08:28:28;;;;;;;11.52;8.48;;;24.20;99.90;;;24.44;93.64;96952.66;5035374;28;20029;-38
2023/09/12 08:30:53;;;;;;;10.38;7.25;;;24.30;99.90;;;24.55;93.25;96947.06;5035795;28;20132;-38
2023/09/12 08:33:19;;;;;;;12.00;7.53;;;24.40;99.90;;;24.65;92.31;96938.03;5028838;28;20029;-38
2023/09/12 08:35:45;;;;;;;7.57;6.68;;;24.50;99.90;;;24.82;91.69;96944.41;5033740;28;20068;-39
2023/09/12 08:38:11;;;;;;;9.77;7.07;;;24.70;99.90;;;24.88;92.02;96939.22;5021831;28;20063;-38
2023/09/12 08:40:37;;;;;;;8.63;7.40;;;24.80;99.90;;;24.96;95.52;96936.59;5029355;28;20107;-38
2023/09/12 08:43:03;;;;;;;9.45;6.80;;;24.90;99.90;;;25.08;96.47;96939.03;5011460;28;20481;-38
2023/09/12 08:45:30;;;;;;;8.23;6.97;;;24.90;99.90;;;25.25;93.15;96948.09;5026461;28;20048;-38
2023/09/12 08:48:01;;;;;;;12.50;7.25;;;25.00;99.90;;;25.39;92.08;96943.94;5035023;28;20743;-39
2023/09/12 08:50:30;;;;;;;10.50;7.65;;;25.20;99.90;;;25.44;90.08;96933.53;5034610;28;20032;-38
2023/09/12 08:52:56;;;;;;;10.93;7.85;;;25.30;99.90;;;25.60;91.53;96951.66;5034499;28;20025;-38
2023/09/12 08:55:22;;;;;;;14.50;7.82;;;25.40;99.90;;;25.69;85.42;96946.13;5030868;28;20044;-40
2023/09/12 08:57:50;;;;;;;10.43;7.93;;;25.50;99.90;;;25.72;86.05;96937.69;5031523;28;20090;-39
2023/09/12 09:00:16;;;;;;;9.52;7.43;;;25.60;99.90;;;25.83;85.39;96944.66;5037155;28;20029;-38
2023/09/12 09:02:43;;;;;;;12.15;8.88;;;25.60;99.90;;;25.86;79.84;96954.28;5035877;28;20152;-38
2023/09/12 09:05:11;;;;;;;12.82;8.50;;;25.70;99.90;;;25.86;80.58;96948.88;5034767;28;20033;-37
2023/09/12 09:07:38;;;;;;;10.43;8.60;;;25.70;99.90;;;25.82;80.07;96950.22;5025645;28;20120;-38
2023/09/12 09:10:07;;;;;;;8.27;7.25;;;25.60;99.90;;;25.83;81.05;96949.22;5029459;28;20047;-38
2023/09/12 09:12:34;;;;;;;9.60;7.75;;;25.60;99.90;;;25.82;81.14;96942.09;5032645;28;20028;-38
2023/09/12 09:15:27;;;;;;;11.57;8.18;;;25.60;99.90;;;25.77;82.51;96944.44;5032434;28;20029;-39
2023/09/12 09:17:55;;;;;;;13.93;8.82;;;25.50;99.90;;;25.75;81.00;96952.72;5035422;28;20070;-37
2023/09/12 09:20:34;;;;;;;13.95;7.97;;;25.50;99.90;;;25.77;80.38;96939.06;5035579;28;20500;-38
2023/09/12 09:23:09;;;;;;;9.38;7.28;;;25.50;99.90;;;25.80;80.36;96941.44;5035215;28;20116;-38
2023/09/12 09:25:53;;;;;;;11.32;8.25;;;25.50;99.90;;;25.78;80.48;96936.19;5031156;28;20029;-39
2023/09/12 09:28:22;;;;;;;13.15;7.82;;;25.60;99.90;;;25.82;81.63;96929.44;5035888;28;20429;-38
2023/09/12 09:30:51;;;;;;;12.18;8.23;;;25.60;99.90;;;25.89;81.99;96926.94;5033138;28;20388;-38
2023/09/12 09:33:17;;;;;;;13.65;8.23;;;25.70;99.90;;;25.90;81.38;96926.78;5035436;28;20033;-38
2023/09/12 09:35:45;;;;;;;10.00;7.82;;;25.70;99.90;;;25.98;80.67;96919.75;5035677;28;20033;-39
2023/09/12 09:38:16;;;;;;;13.57;8.10;;;25.80;99.90;;;25.99;79.35;96910.63;5034022;28;20120;-38
2023/09/12 09:40:43;;;;;;;14.23;8.52;;;25.80;99.90;;;25.99;81.87;96911.47;5032486;28;20071;-38
2023/09/12 09:43:08;;;;;;;12.68;7.97;;;25.80;99.90;;;26.04;79.13;96910.97;5034321;28;20217;-39
2023/09/12 09:45:46;;;;;;;13.07;8.55;;;25.80;99.90;;;26.03;78.38;96914.69;5031951;28;20041;-39
2023/09/12 09:48:22;;;;;;;14.00;8.00;;;25.80;99.90;;;26.09;78.55;96914.88;5031392;28;20037;-38
2023/09/12 09:50:48;;;;;;;12.13;8.85;;;25.80;99.90;;;26.19;81.00;96924.69;5033024;28;20036;-39
2023/09/12 09:53:14;;;;;;;12.65;8.43;;;26.00;99.90;;;26.23;76.53;96921.47;5037455;28;20032;-39
2023/09/12 09:55:41;;;;;;;14.77;8.27;;;26.00;99.90;;;26.24;76.65;96914.22;5032930;28;20040;-38
2023/09/12 09:58:07;;;;;;;12.00;8.00;;;26.00;99.90;;;26.28;76.83;96913.72;5034618;28;20397;-38
2023/09/12 10:00:37;;;;;;;8.80;7.82;;;26.10;99.90;;;26.33;76.15;96909.69;5035283;28;20063;-39
2023/09/12 10:03:07;;;;;;;9.70;7.53;;;26.10;99.90;;;26.42;74.48;96911.38;5032407;28;20037;-39
2023/09/12 10:05:37;;;;;;;8.52;7.22;;;26.20;99.90;;;26.49;73.68;96904.28;5032321;28;20098;-39
2023/09/12 10:08:06;;;;;;;10.20;6.57;;;26.30;99.90;;;26.56;71.46;96899.00;5035981;28;20282;-39